Main page


Airports :

Islay, Scotland

Islay Airport

latitude: 55-40-55N, longitude: 006-15-24W, elevation: 16 m

Current weather observation

The report was made 12 minutes ago, at 17:20 UTC
Wind 9 kt from the West, varying between Southwest and West/Northwest
Temperature 7°C
Humidity 66%
Pressure 1033 hPa
Visibility 10 km or more
Few clouds at a height of 4500 ft

METAR: EGPI 201720Z 27009KT 230V290 9999 FEW045 07/01 Q1033

Time: 17:32 (17:32 UTC)


The report was made 3 hours and 33 minutes ago, at 13:59 UTC
Forecast valid from 20 at 15 UTC to 20 at 19 UTC
Wind 6 kt from the West
Visibility 10 km or more
Few clouds at a height of 4000 ft

TAF: EGPI 201359Z 2015/2019 28006KT 9999 FEW040

Weather observations and forecasts of more than 4000 airports (METAR and TAF reports).

The available stations are represented by yellow and red dots on the map.

Hover mouse over dot to see the name of the station.

Then click to see weather observations and forecasts.

To change the map : click on the green buttons with a black cross to zoom in, on the green button with a dash to zoom out, or on the green arrows for adjacent maps.